sensor_id;sensor_type;location;lat;lon;timestamp;pressure;altitude;pressure_sealevel;temperature;humidity
2397;BME280;1209;48.410;9.054;2023-02-19T00:01:08;96752.75;;;10.83;100.00
2397;BME280;1209;48.410;9.054;2023-02-19T00:03:35;96757.81;;;10.85;100.00
2397;BME280;1209;48.410;9.054;2023-02-19T00:06:01;96750.94;;;10.84;100.00
2397;BME280;1209;48.410;9.054;2023-02-19T00:08:31;96750.44;;;10.80;100.00
2397;BME280;1209;48.410;9.054;2023-02-19T00:11:01;96749.63;;;10.80;100.00
2397;BME280;1209;48.410;9.054;2023-02-19T00:13:27;96745.06;;;10.82;100.00
2397;BME280;1209;48.410;9.054;2023-02-19T00:15:52;96751.59;;;10.78;100.00
2397;BME280;1209;48.410;9.054;2023-02-19T00:18:18;96744.41;;;10.80;100.00
2397;BME280;1209;48.410;9.054;2023-02-19T00:20:43;96743.44;;;10.72;100.00
2397;BME280;1209;48.410;9.054;2023-02-19T00:23:08;96746.22;;;10.71;100.00
2397;BME280;1209;48.410;9.054;2023-02-19T00:25:37;96744.41;;;10.71;100.00
2397;BME280;1209;48.410;9.054;2023-02-19T00:28:02;96738.38;;;10.71;100.00
2397;BME280;1209;48.410;9.054;2023-02-19T00:30:28;96745.06;;;10.73;100.00
2397;BME280;1209;48.410;9.054;2023-02-19T00:32:53;96747.03;;;10.71;100.00
2397;BME280;1209;48.410;9.054;2023-02-19T00:35:19;96739.34;;;10.70;100.00
2397;BME280;1209;48.410;9.054;2023-02-19T00:37:45;96740.81;;;10.81;100.00
2397;BME280;1209;48.410;9.054;2023-02-19T00:40:10;96733.63;;;10.75;100.00
2397;BME280;1209;48.410;9.054;2023-02-19T00:42:35;96730.38;;;10.72;100.00
2397;BME280;1209;48.410;9.054;2023-02-19T00:45:01;96737.72;;;10.77;100.00
2397;BME280;1209;48.410;9.054;2023-02-19T00:47:26;96728.56;;;10.81;100.00
2397;BME280;1209;48.410;9.054;2023-02-19T00:49:51;96736.25;;;10.83;100.00
2397;BME280;1209;48.410;9.054;2023-02-19T00:52:17;96737.41;;;10.80;100.00
2397;BME280;1209;48.410;9.054;2023-02-19T00:54:42;96730.38;;;10.81;100.00
2397;BME280;1209;48.410;9.054;2023-02-19T00:57:07;96739.53;;;10.77;100.00
2397;BME280;1209;48.410;9.054;2023-02-19T00:59:33;96739.84;;;10.73;100.00
2397;BME280;1209;48.410;9.054;2023-02-19T01:01:58;96733.00;;;10.72;100.00
2397;BME280;1209;48.410;9.054;2023-02-19T01:04:23;96735.59;;;10.72;100.00
2397;BME280;1209;48.410;9.054;2023-02-19T01:06:49;96745.56;;;10.69;100.00
2397;BME280;1209;48.410;9.054;2023-02-19T01:09:14;96746.72;;;10.66;100.00
2397;BME280;1209;48.410;9.054;2023-02-19T01:11:39;96739.38;;;10.62;100.00
2397;BME280;1209;48.410;9.054;2023-02-19T01:14:05;96733.66;;;10.66;100.00
2397;BME280;1209;48.410;9.054;2023-02-19T01:16:30;96730.38;;;10.64;100.00
2397;BME280;1209;48.410;9.054;2023-02-19T01:18:56;96726.31;;;10.62;100.00
2397;BME280;1209;48.410;9.054;2023-02-19T01:21:24;96728.75;;;10.55;100.00
2397;BME280;1209;48.410;9.054;2023-02-19T01:23:50;96735.13;;;10.53;100.00
2397;BME280;1209;48.410;9.054;2023-02-19T01:26:18;96730.88;;;10.44;100.00
2397;BME280;1209;48.410;9.054;2023-02-19T01:28:45;96726.47;;;10.44;100.00
2397;BME280;1209;48.410;9.054;2023-02-19T01:31:20;96725.81;;;10.42;100.00
2397;BME280;1209;48.410;9.054;2023-02-19T01:33:48;96716.69;;;10.46;100.00
2397;BME280;1209;48.410;9.054;2023-02-19T01:36:14;96717.97;;;10.42;100.00
2397;BME280;1209;48.410;9.054;2023-02-19T01:38:41;96713.22;;;10.37;100.00
2397;BME280;1209;48.410;9.054;2023-02-19T01:41:09;96723.84;;;10.44;100.00
2397;BME280;1209;48.410;9.054;2023-02-19T01:46:19;96732.97;;;10.40;100.00
2397;BME280;1209;48.410;9.054;2023-02-19T01:48:45;96732.97;;;10.40;100.00
2397;BME280;1209;48.410;9.054;2023-02-19T01:51:13;96730.06;;;10.43;100.00
2397;BME280;1209;48.410;9.054;2023-02-19T01:53:44;96730.06;;;10.43;100.00
2397;BME280;1209;48.410;9.054;2023-02-19T01:56:14;96718.31;;;10.47;100.00
2397;BME280;1209;48.410;9.054;2023-02-19T01:58:41;96721.25;;;10.44;100.00
2397;BME280;1209;48.410;9.054;2023-02-19T02:01:07;96717.00;;;10.43;100.00
2397;BME280;1209;48.410;9.054;2023-02-19T02:03:34;96713.88;;;10.39;100.00
2397;BME280;1209;48.410;9.054;2023-02-19T02:06:08;96718.97;;;10.41;100.00
2397;BME280;1209;48.410;9.054;2023-02-19T02:08:37;96719.41;;;10.36;100.00
2397;BME280;1209;48.410;9.054;2023-02-19T02:11:22;96713.22;;;10.37;100.00
2397;BME280;1209;48.410;9.054;2023-02-19T02:13:47;96708.66;;;10.31;100.00
2397;BME280;1209;48.410;9.054;2023-02-19T02:25:23;96705.75;;;10.43;100.00
2397;BME280;1209;48.410;9.054;2023-02-19T02:27:29;96708.34;;;10.43;100.00
2397;BME280;1209;48.410;9.054;2023-02-19T02:30:15;96722.38;;;10.42;100.00
2397;BME280;1209;48.410;9.054;2023-02-19T02:35:19;96724.69;;;10.53;100.00
2397;BME280;1209;48.410;9.054;2023-02-19T02:37:47;96731.53;;;10.46;100.00
2397;BME280;1209;48.410;9.054;2023-02-19T02:40:15;96732.19;;;10.48;100.00
2397;BME280;1209;48.410;9.054;2023-02-19T02:42:42;96730.56;;;10.47;100.00
2397;BME280;1209;48.410;9.054;2023-02-19T02:45:31;96717.66;;;10.53;100.00
2397;BME280;1209;48.410;9.054;2023-02-19T02:48:12;96720.28;;;10.45;100.00
2397;BME280;1209;48.410;9.054;2023-02-19T02:50:43;96707.88;;;10.47;100.00
2397;BME280;1209;48.410;9.054;2023-02-19T02:56:14;96695.78;;;10.46;100.00
2397;BME280;1209;48.410;9.054;2023-02-19T02:58:41;96703.47;;;10.48;100.00
2397;BME280;1209;48.410;9.054;2023-02-19T03:01:15;96701.00;;;10.46;100.00
2397;BME280;1209;48.410;9.054;2023-02-19T03:04:04;96698.41;;;10.46;100.00
2397;BME280;1209;48.410;9.054;2023-02-19T03:06:34;96695.63;;;10.48;100.00
2397;BME280;1209;48.410;9.054;2023-02-19T03:09:14;96687.13;;;10.46;100.00
2397;BME280;1209;48.410;9.054;2023-02-19T03:11:45;96689.25;;;10.50;100.00
2397;BME280;1209;48.410;9.054;2023-02-19T03:14:42;96670.63;;;10.37;100.00
2397;BME280;1209;48.410;9.054;2023-02-19T03:17:55;96657.78;;;10.44;100.00
2397;BME280;1209;48.410;9.054;2023-02-19T03:20:43;96662.63;;;10.38;100.00
2397;BME280;1209;48.410;9.054;2023-02-19T03:23:11;96654.97;;;10.37;100.00
2397;BME280;1209;48.410;9.054;2023-02-19T03:25:38;96656.44;;;10.39;100.00
2397;BME280;1209;48.410;9.054;2023-02-19T03:28:26;96659.69;;;10.33;100.00
2397;BME280;1209;48.410;9.054;2023-02-19T03:31:15;96664.09;;;10.33;100.00
2397;BME280;1209;48.410;9.054;2023-02-19T03:33:44;96651.38;;;10.30;100.00
2397;BME280;1209;48.410;9.054;2023-02-19T03:36:12;96656.94;;;10.27;100.00
2397;BME280;1209;48.410;9.054;2023-02-19T03:38:47;96653.19;;;10.29;100.00
2397;BME280;1209;48.410;9.054;2023-02-19T03:41:28;96652.53;;;10.27;100.00
2397;BME280;1209;48.410;9.054;2023-02-19T03:44:22;96653.84;;;10.23;100.00
2397;BME280;1209;48.410;9.054;2023-02-19T03:52:18;96669.97;;;10.27;100.00
2397;BME280;1209;48.410;9.054;2023-02-19T04:02:51;96673.56;;;10.26;100.00
2397;BME280;1209;48.410;9.054;2023-02-19T04:05:21;96687.75;;;10.23;100.00
2397;BME280;1209;48.410;9.054;2023-02-19T04:07:51;96690.22;;;10.25;100.00
2397;BME280;1209;48.410;9.054;2023-02-19T04:10:18;96689.84;;;10.20;100.00
2397;BME280;1209;48.410;9.054;2023-02-19T04:12:52;96693.63;;;10.25;100.00
2397;BME280;1209;48.410;9.054;2023-02-19T04:15:23;96690.69;;;10.20;100.00
2397;BME280;1209;48.410;9.054;2023-02-19T04:18:05;96691.19;;;10.24;100.00
2397;BME280;1209;48.410;9.054;2023-02-19T04:20:37;96698.81;;;10.17;100.00
2397;BME280;1209;48.410;9.054;2023-02-19T04:23:03;96696.38;;;10.16;100.00
2397;BME280;1209;48.410;9.054;2023-02-19T04:25:29;96694.56;;;10.16;100.00
2397;BME280;1209;48.410;9.054;2023-02-19T04:27:55;96699.63;;;10.18;100.00
2397;BME280;1209;48.410;9.054;2023-02-19T04:30:21;96707.00;;;10.22;100.00
2397;BME280;1209;48.410;9.054;2023-02-19T04:32:46;96709.78;;;10.21;100.00
2397;BME280;1209;48.410;9.054;2023-02-19T04:35:12;96710.06;;;10.18;100.00
2397;BME280;1209;48.410;9.054;2023-02-19T04:37:37;96714.84;;;10.22;100.00
2397;BME280;1209;48.410;9.054;2023-02-19T04:40:03;96711.06;;;10.17;100.00
2397;BME280;1209;48.410;9.054;2023-02-19T04:42:28;96700.44;;;10.10;100.00
2397;BME280;1209;48.410;9.054;2023-02-19T04:44:53;96716.59;;;10.14;100.00
2397;BME280;1209;48.410;9.054;2023-02-19T04:47:19;96713.50;;;10.10;100.00
2397;BME280;1209;48.410;9.054;2023-02-19T04:49:44;96724.72;;;10.02;100.00
2397;BME280;1209;48.410;9.054;2023-02-19T04:52:10;96733.06;;;10.06;100.00
2397;BME280;1209;48.410;9.054;2023-02-19T04:54:35;96738.75;;;10.01;100.00
2397;BME280;1209;48.410;9.054;2023-02-19T04:57:01;96737.06;;;9.92;100.00
2397;BME280;1209;48.410;9.054;2023-02-19T04:59:26;96740.50;;;9.93;100.00
2397;BME280;1209;48.410;9.054;2023-02-19T05:01:52;96734.47;;;9.92;100.00
2397;BME280;1209;48.410;9.054;2023-02-19T05:04:17;96729.56;;;9.89;100.00
2397;BME280;1209;48.410;9.054;2023-02-19T05:06:43;96745.25;;;9.97;100.00
2397;BME280;1209;48.410;9.054;2023-02-19T05:09:08;96744.63;;;10.03;100.00
2397;BME280;1209;48.410;9.054;2023-02-19T05:11:33;96749.59;;;9.89;100.00
2397;BME280;1209;48.410;9.054;2023-02-19T05:13:59;96750.41;;;9.81;100.00
2397;BME280;1209;48.410;9.054;2023-02-19T05:16:24;96748.44;;;9.75;100.00
2397;BME280;1209;48.410;9.054;2023-02-19T05:18:50;96740.75;;;9.73;100.00
2397;BME280;1209;48.410;9.054;2023-02-19T05:21:15;96742.38;;;9.66;100.00
2397;BME280;1209;48.410;9.054;2023-02-19T05:23:40;96749.84;;;9.61;100.00
2397;BME280;1209;48.410;9.054;2023-02-19T05:26:15;96749.19;;;9.59;100.00
2397;BME280;1209;48.410;9.054;2023-02-19T05:28:44;96749.69;;;9.63;100.00
2397;BME280;1209;48.410;9.054;2023-02-19T05:31:10;96750.66;;;9.62;100.00
2397;BME280;1209;48.410;9.054;2023-02-19T05:33:36;96755.38;;;9.58;100.00
2397;BME280;1209;48.410;9.054;2023-02-19T05:36:07;96753.75;;;9.57;100.00
2397;BME280;1209;48.410;9.054;2023-02-19T05:38:34;96751.94;;;9.58;100.00
2397;BME280;1209;48.410;9.054;2023-02-19T05:41:20;96757.47;;;9.55;100.00
2397;BME280;1209;48.410;9.054;2023-02-19T05:43:47;96765.66;;;9.60;100.00
2397;BME280;1209;48.410;9.054;2023-02-19T05:46:15;96754.25;;;9.61;100.00
2397;BME280;1209;48.410;9.054;2023-02-19T05:48:41;96758.75;;;9.51;100.00
2397;BME280;1209;48.410;9.054;2023-02-19T05:51:14;96763.66;;;9.54;100.00
2397;BME280;1209;48.410;9.054;2023-02-19T05:53:41;96763.31;;;9.49;100.00
2397;BME280;1209;48.410;9.054;2023-02-19T05:58:57;96775.53;;;9.48;100.00
2397;BME280;1209;48.410;9.054;2023-02-19T06:01:26;96766.81;;;9.39;100.00
2397;BME280;1209;48.410;9.054;2023-02-19T06:03:52;96771.22;;;9.39;100.00
2397;BME280;1209;48.410;9.054;2023-02-19T06:06:18;96769.13;;;9.42;100.00
2397;BME280;1209;48.410;9.054;2023-02-19T06:08:44;96774.50;;;9.41;100.00
2397;BME280;1209;48.410;9.054;2023-02-19T06:11:10;96780.47;;;9.33;100.00
2397;BME280;1209;48.410;9.054;2023-02-19T06:13:35;96783.91;;;9.34;100.00
2397;BME280;1209;48.410;9.054;2023-02-19T06:16:05;96787.84;;;9.38;100.00
2397;BME280;1209;48.410;9.054;2023-02-19T06:18:31;96792.22;;;9.37;100.00
2397;BME280;1209;48.410;9.054;2023-02-19T06:21:04;96796.53;;;9.46;100.00
2397;BME280;1209;48.410;9.054;2023-02-19T06:23:31;96797.44;;;9.37;100.00
2397;BME280;1209;48.410;9.054;2023-02-19T06:28:31;96806.06;;;9.38;100.00
2397;BME280;1209;48.410;9.054;2023-02-19T06:30:59;96801.03;;;9.36;100.00
2397;BME280;1209;48.410;9.054;2023-02-19T06:33:26;96813.06;;;9.37;100.00
2397;BME280;1209;48.410;9.054;2023-02-19T06:35:52;96825.00;;;9.40;100.00
2397;BME280;1209;48.410;9.054;2023-02-19T06:38:17;96829.38;;;9.39;100.00
2397;BME280;1209;48.410;9.054;2023-02-19T06:40:44;96831.69;;;9.42;100.00
2397;BME280;1209;48.410;9.054;2023-02-19T06:43:10;96836.22;;;9.40;100.00
2397;BME280;1209;48.410;9.054;2023-02-19T06:45:35;96846.16;;;9.37;100.00
2397;BME280;1209;48.410;9.054;2023-02-19T06:48:01;96850.53;;;9.36;100.00
2397;BME280;1209;48.410;9.054;2023-02-19T06:50:26;96858.16;;;9.30;100.00
2397;BME280;1209;48.410;9.054;2023-02-19T06:52:51;96861.56;;;9.30;100.00
2397;BME280;1209;48.410;9.054;2023-02-19T06:55:16;96867.47;;;9.32;100.00
2397;BME280;1209;48.410;9.054;2023-02-19T06:57:42;96881.47;;;9.31;100.00
2397;BME280;1209;48.410;9.054;2023-02-19T07:00:08;96883.09;;;9.32;100.00
2397;BME280;1209;48.410;9.054;2023-02-19T07:02:33;96887.78;;;9.29;100.00
2397;BME280;1209;48.410;9.054;2023-02-19T07:04:59;96892.78;;;9.22;100.00
2397;BME280;1209;48.410;9.054;2023-02-19T07:07:24;96899.19;;;9.28;100.00
2397;BME280;1209;48.410;9.054;2023-02-19T07:09:49;96902.03;;;9.17;100.00
2397;BME280;1209;48.410;9.054;2023-02-19T07:12:15;96908.22;;;9.15;100.00
2397;BME280;1209;48.410;9.054;2023-02-19T07:14:40;96907.25;;;9.17;100.00
2397;BME280;1209;48.410;9.054;2023-02-19T07:17:05;96922.06;;;9.16;100.00
2397;BME280;1209;48.410;9.054;2023-02-19T07:19:31;96937.03;;;9.14;100.00
2397;BME280;1209;48.410;9.054;2023-02-19T07:21:56;96937.69;;;9.16;100.00
2397;BME280;1209;48.410;9.054;2023-02-19T07:24:21;96937.31;;;9.11;100.00
2397;BME280;1209;48.410;9.054;2023-02-19T07:26:46;96936.56;;;9.19;100.00
2397;BME280;1209;48.410;9.054;2023-02-19T07:29:12;96939.78;;;9.12;100.00
2397;BME280;1209;48.410;9.054;2023-02-19T07:31:37;96942.31;;;9.22;100.00
2397;BME280;1209;48.410;9.054;2023-02-19T07:34:02;96951.47;;;9.26;100.00
2397;BME280;1209;48.410;9.054;2023-02-19T07:36:28;96948.19;;;9.24;100.00
2397;BME280;1209;48.410;9.054;2023-02-19T07:38:57;96954.88;;;9.27;100.00
2397;BME280;1209;48.410;9.054;2023-02-19T07:41:24;96955.63;;;9.19;100.00
2397;BME280;1209;48.410;9.054;2023-02-19T07:43:49;96947.97;;;9.18;100.00
2397;BME280;1209;48.410;9.054;2023-02-19T07:46:14;96952.44;;;9.07;100.00
2397;BME280;1209;48.410;9.054;2023-02-19T07:48:41;96933.38;;;9.07;100.00
2397;BME280;1209;48.410;9.054;2023-02-19T07:51:10;96939.94;;;9.11;100.00
2397;BME280;1209;48.410;9.054;2023-02-19T07:53:35;96939.41;;;9.07;100.00
2397;BME280;1209;48.410;9.054;2023-02-19T07:56:03;96947.44;;;9.14;100.00
2397;BME280;1209;48.410;9.054;2023-02-19T07:58:29;96944.69;;;9.15;100.00
2397;BME280;1209;48.410;9.054;2023-02-19T08:00:55;96947.44;;;9.14;100.00
2397;BME280;1209;48.410;9.054;2023-02-19T08:03:21;96940.44;;;9.14;100.00
2397;BME280;1209;48.410;9.054;2023-02-19T08:05:46;96938.13;;;9.11;100.00
2397;BME280;1209;48.410;9.054;2023-02-19T08:08:14;96940.97;;;9.18;100.00
2397;BME280;1209;48.410;9.054;2023-02-19T08:10:39;96936.56;;;9.19;100.00
2397;BME280;1209;48.410;9.054;2023-02-19T08:13:24;96944.59;;;9.25;100.00
2397;BME280;1209;48.410;9.054;2023-02-19T08:15:53;96933.13;;;9.36;100.00
2397;BME280;1209;48.410;9.054;2023-02-19T08:18:24;96938.28;;;9.28;100.00
2397;BME280;1209;48.410;9.054;2023-02-19T08:20:50;96942.88;;;9.34;100.00
2397;BME280;1209;48.410;9.054;2023-02-19T08:23:16;96950.56;;;9.35;100.00
2397;BME280;1209;48.410;9.054;2023-02-19T08:25:42;96954.72;;;9.28;100.00
2397;BME280;1209;48.410;9.054;2023-02-19T08:28:10;96955.84;;;9.26;100.00
2397;BME280;1209;48.410;9.054;2023-02-19T08:30:37;96957.28;;;9.20;100.00
2397;BME280;1209;48.410;9.054;2023-02-19T08:33:03;96963.66;;;9.26;100.00
2397;BME280;1209;48.410;9.054;2023-02-19T08:35:29;96951.59;;;9.25;100.00
2397;BME280;1209;48.410;9.054;2023-02-19T08:37:58;96967.09;;;9.26;100.00
2397;BME280;1209;48.410;9.054;2023-02-19T08:40:24;96967.69;;;9.20;100.00
2397;BME280;1209;48.410;9.054;2023-02-19T08:42:50;96981.63;;;9.11;100.00
2397;BME280;1209;48.410;9.054;2023-02-19T08:45:16;96973.03;;;9.01;100.00
2397;BME280;1209;48.410;9.054;2023-02-19T08:47:41;96976.25;;;9.12;100.00
2397;BME280;1209;48.410;9.054;2023-02-19T08:50:07;96972.44;;;9.07;100.00
2397;BME280;1209;48.410;9.054;2023-02-19T08:52:33;96975.59;;;9.10;100.00
2397;BME280;1209;48.410;9.054;2023-02-19T08:54:59;96978.25;;;9.19;100.00
2397;BME280;1209;48.410;9.054;2023-02-19T08:57:25;96985.34;;;9.08;100.00
2397;BME280;1209;48.410;9.054;2023-02-19T08:59:51;96992.41;;;9.16;100.00
2397;BME280;1209;48.410;9.054;2023-02-19T09:02:16;96988.16;;;9.15;100.00
2397;BME280;1209;48.410;9.054;2023-02-19T09:04:41;97000.00;;;9.09;100.00
2397;BME280;1209;48.410;9.054;2023-02-19T09:07:07;97000.16;;;9.08;100.00
2397;BME280;1209;48.410;9.054;2023-02-19T09:09:38;97008.63;;;9.10;100.00
2397;BME280;1209;48.410;9.054;2023-02-19T09:12:05;97014.22;;;9.15;100.00
2397;BME280;1209;48.410;9.054;2023-02-19T09:14:32;97011.25;;;9.28;100.00
2397;BME280;1209;48.410;9.054;2023-02-19T09:16:58;97005.00;;;9.21;100.00
2397;BME280;1209;48.410;9.054;2023-02-19T09:19:24;97006.13;;;9.36;100.00
2397;BME280;1209;48.410;9.054;2023-02-19T09:21:49;97013.25;;;9.34;100.00
2397;BME280;1209;48.410;9.054;2023-02-19T09:24:14;97014.59;;;9.38;100.00
2397;BME280;1209;48.410;9.054;2023-02-19T09:26:39;97021.59;;;9.37;100.00
2397;BME280;1209;48.410;9.054;2023-02-19T09:29:05;97018.84;;;9.39;100.00
2397;BME280;1209;48.410;9.054;2023-02-19T09:31:30;97021.44;;;9.39;100.00
2397;BME280;1209;48.410;9.054;2023-02-19T09:33:55;97028.09;;;9.33;100.00
2397;BME280;1209;48.410;9.054;2023-02-19T09:36:21;97033.00;;;9.36;100.00
2397;BME280;1209;48.410;9.054;2023-02-19T09:38:46;97039.56;;;9.40;100.00
2397;BME280;1209;48.410;9.054;2023-02-19T09:41:34;97039.84;;;9.37;100.00
2397;BME280;1209;48.410;9.054;2023-02-19T09:44:02;97039.31;;;9.34;100.00
2397;BME280;1209;48.410;9.054;2023-02-19T09:49:02;97027.53;;;9.12;100.00
2397;BME280;1209;48.410;9.054;2023-02-19T09:51:29;97033.28;;;9.15;100.00
2397;BME280;1209;48.410;9.054;2023-02-19T09:53:56;97044.75;;;9.23;100.00
2397;BME280;1209;48.410;9.054;2023-02-19T09:56:23;97054.06;;;9.25;100.00
2397;BME280;1209;48.410;9.054;2023-02-19T09:58:52;97062.03;;;9.24;100.00
2397;BME280;1209;48.410;9.054;2023-02-19T10:01:20;97061.28;;;9.31;100.00
2397;BME280;1209;48.410;9.054;2023-02-19T10:03:48;97060.03;;;9.35;100.00
2397;BME280;1209;48.410;9.054;2023-02-19T10:06:15;97063.59;;;9.34;100.00
2397;BME280;1209;48.410;9.054;2023-02-19T10:08:45;97060.09;;;9.43;100.00
2397;BME280;1209;48.410;9.054;2023-02-19T10:11:11;97067.84;;;9.35;100.00
2397;BME280;1209;48.410;9.054;2023-02-19T10:14:12;97066.06;;;9.36;100.00
2397;BME280;1209;48.410;9.054;2023-02-19T10:16:41;97066.00;;;9.45;100.00
2397;BME280;1209;48.410;9.054;2023-02-19T10:19:10;97060.09;;;9.43;100.00
2397;BME280;1209;48.410;9.054;2023-02-19T10:21:36;97073.97;;;9.44;100.00
2397;BME280;1209;48.410;9.054;2023-02-19T10:24:04;97073.94;;;9.54;100.00
2397;BME280;1209;48.410;9.054;2023-02-19T10:26:30;97074.41;;;9.39;100.00
2397;BME280;1209;48.410;9.054;2023-02-19T10:28:59;97078.03;;;9.29;100.00
2397;BME280;1209;48.410;9.054;2023-02-19T10:31:25;97070.81;;;9.23;100.00
2397;BME280;1209;48.410;9.054;2023-02-19T10:38:49;97074.50;;;9.48;100.00
2397;BME280;1209;48.410;9.054;2023-02-19T10:41:17;97075.06;;;9.41;100.00
2397;BME280;1209;48.410;9.054;2023-02-19T10:44:01;97073.97;;;9.44;100.00
2397;BME280;1209;48.410;9.054;2023-02-19T10:46:32;97079.72;;;9.48;100.00
2397;BME280;1209;48.410;9.054;2023-02-19T10:49:12;97079.13;;;9.71;100.00
2397;BME280;1209;48.410;9.054;2023-02-19T10:51:43;97087.78;;;9.90;100.00
2397;BME280;1209;48.410;9.054;2023-02-19T10:54:24;97092.69;;;10.10;100.00
2397;BME280;1209;48.410;9.054;2023-02-19T10:56:51;97096.44;;;10.26;100.00
2397;BME280;1209;48.410;9.054;2023-02-19T10:59:26;97102.06;;;10.39;100.00
2397;BME280;1209;48.410;9.054;2023-02-19T11:01:59;97101.72;;;10.34;100.00
2397;BME280;1209;48.410;9.054;2023-02-19T11:04:29;97110.09;;;10.02;100.00
2397;BME280;1209;48.410;9.054;2023-02-19T11:07:06;97101.38;;;9.93;100.00
2397;BME280;1209;48.410;9.054;2023-02-19T11:09:44;97104.91;;;9.92;100.00
2397;BME280;1209;48.410;9.054;2023-02-19T11:12:25;97102.59;;;9.89;100.00
2397;BME280;1209;48.410;9.054;2023-02-19T11:14:51;97108.50;;;9.91;100.00
2397;BME280;1209;48.410;9.054;2023-02-19T11:17:24;97106.56;;;9.75;100.00
2397;BME280;1209;48.410;9.054;2023-02-19T11:19:53;97092.25;;;9.79;100.00
2397;BME280;1209;48.410;9.054;2023-02-19T11:22:37;97095.22;;;9.85;100.00
2397;BME280;1209;48.410;9.054;2023-02-19T11:25:18;97091.88;;;9.92;100.00
2397;BME280;1209;48.410;9.054;2023-02-19T11:27:58;97088.03;;;9.96;100.00
2397;BME280;1209;48.410;9.054;2023-02-19T11:30:38;97084.72;;;10.12;100.00
2397;BME280;1209;48.410;9.054;2023-02-19T11:35:45;97085.16;;;10.25;100.00
2397;BME280;1209;48.410;9.054;2023-02-19T11:38:13;97076.22;;;10.28;100.00
2397;BME280;1209;48.410;9.054;2023-02-19T11:49:17;97064.25;;;9.99;100.00
2397;BME280;1209;48.410;9.054;2023-02-19T11:59:51;97088.38;;;10.01;100.00
2397;BME280;1209;48.410;9.054;2023-02-19T12:02:44;97083.38;;;9.90;100.00
2397;BME280;1209;48.410;9.054;2023-02-19T12:05:35;97086.13;;;9.89;100.00
2397;BME280;1209;48.410;9.054;2023-02-19T12:11:09;97082.19;;;10.02;100.00
2397;BME280;1209;48.410;9.054;2023-02-19T12:17:04;97086.97;;;10.25;100.00
2397;BME280;1209;48.410;9.054;2023-02-19T12:22:18;97096.28;;;9.92;100.00
2397;BME280;1209;48.410;9.054;2023-02-19T12:30:45;97111.06;;;10.01;100.00
2397;BME280;1209;48.410;9.054;2023-02-19T12:39:33;97106.97;;;9.98;100.00
2397;BME280;1209;48.410;9.054;2023-02-19T12:44:52;97106.97;;;9.98;100.00
2397;BME280;1209;48.410;9.054;2023-02-19T12:47:24;97105.59;;;10.12;100.00
2397;BME280;1209;48.410;9.054;2023-02-19T12:50:04;97098.75;;;10.11;100.00
2397;BME280;1209;48.410;9.054;2023-02-19T12:52:35;97088.16;;;10.13;100.00
2397;BME280;1209;48.410;9.054;2023-02-19T12:55:21;97085.16;;;10.25;100.00
2397;BME280;1209;48.410;9.054;2023-02-19T12:57:49;97084.03;;;10.28;100.00
2397;BME280;1209;48.410;9.054;2023-02-19T13:00:32;97082.41;;;10.27;100.00
2397;BME280;1209;48.410;9.054;2023-02-19T13:05:54;97088.44;;;10.27;100.00
2397;BME280;1209;48.410;9.054;2023-02-19T13:08:46;97087.00;;;10.33;100.00
2397;BME280;1209;48.410;9.054;2023-02-19T13:11:19;97075.75;;;10.32;100.00
2397;BME280;1209;48.410;9.054;2023-02-19T13:16:47;97093.56;;;10.37;100.00
2397;BME280;1209;48.410;9.054;2023-02-19T13:19:14;97077.19;;;10.27;100.00
2397;BME280;1209;48.410;9.054;2023-02-19T13:21:40;97081.78;;;10.33;100.00
2397;BME280;1209;48.410;9.054;2023-02-19T13:24:31;97062.81;;;10.23;100.00
2397;BME280;1209;48.410;9.054;2023-02-19T13:30:09;97056.81;;;10.30;100.00
2397;BME280;1209;48.410;9.054;2023-02-19T13:33:02;97056.47;;;10.25;100.00
2397;BME280;1209;48.410;9.054;2023-02-19T13:38:04;97072.94;;;10.26;100.00
2397;BME280;1209;48.410;9.054;2023-02-19T13:40:36;97059.44;;;10.13;100.00
2397;BME280;1209;48.410;9.054;2023-02-19T13:43:05;97057.69;;;9.95;100.00
2397;BME280;1209;48.410;9.054;2023-02-19T13:45:36;97071.59;;;10.04;100.00
2397;BME280;1209;48.410;9.054;2023-02-19T13:48:14;97075.03;;;10.04;100.00
2397;BME280;1209;48.410;9.054;2023-02-19T13:50:51;97068.53;;;10.08;100.00
2397;BME280;1209;48.410;9.054;2023-02-19T13:59:23;97058.63;;;10.12;100.00
2397;BME280;1209;48.410;9.054;2023-02-19T14:14:44;97060.81;;;9.99;100.00
2397;BME280;1209;48.410;9.054;2023-02-19T14:20:01;97060.81;;;9.99;100.00
2397;BME280;1209;48.410;9.054;2023-02-19T14:33:51;97075.56;;;9.72;100.00
2397;BME280;1209;48.410;9.054;2023-02-19T14:36:43;97079.38;;;9.60;100.00
2397;BME280;1209;48.410;9.054;2023-02-19T14:39:16;97083.38;;;9.72;100.00
2397;BME280;1209;48.410;9.054;2023-02-19T14:41:45;97084.22;;;9.73;100.00
2397;BME280;1209;48.410;9.054;2023-02-19T14:44:24;97086.75;;;9.65;100.00
2397;BME280;1209;48.410;9.054;2023-02-19T14:47:10;97101.94;;;9.69;100.00
2397;BME280;1209;48.410;9.054;2023-02-19T14:49:43;97094.63;;;9.73;100.00
2397;BME280;1209;48.410;9.054;2023-02-19T14:52:19;97094.41;;;9.66;100.00
2397;BME280;1209;48.410;9.054;2023-02-19T14:55:00;97094.63;;;9.73;100.00
2397;BME280;1209;48.410;9.054;2023-02-19T14:57:34;97102.38;;;9.65;100.00
2397;BME280;1209;48.410;9.054;2023-02-19T15:00:03;97099.47;;;9.68;100.00
2397;BME280;1209;48.410;9.054;2023-02-19T15:02:42;97103.88;;;9.50;100.00
2397;BME280;1209;48.410;9.054;2023-02-19T15:05:35;97099.31;;;9.52;100.00
2397;BME280;1209;48.410;9.054;2023-02-19T15:08:03;97105.50;;;9.51;100.00
2397;BME280;1209;48.410;9.054;2023-02-19T15:10:32;97084.38;;;9.44;100.00
2397;BME280;1209;48.410;9.054;2023-02-19T15:13:01;97093.44;;;9.50;100.00
2397;BME280;1209;48.410;9.054;2023-02-19T15:15:31;97095.06;;;9.51;100.00
2397;BME280;1209;48.410;9.054;2023-02-19T15:17:58;97100.44;;;9.49;100.00
2397;BME280;1209;48.410;9.054;2023-02-19T15:20:27;97113.78;;;9.46;100.00
2397;BME280;1209;48.410;9.054;2023-02-19T15:22:53;97116.22;;;9.48;100.00
2397;BME280;1209;48.410;9.054;2023-02-19T15:25:22;97109.38;;;9.46;100.00
2397;BME280;1209;48.410;9.054;2023-02-19T15:27:48;97103.06;;;9.49;100.00
2397;BME280;1209;48.410;9.054;2023-02-19T15:32:58;97099.19;;;9.53;100.00
2397;BME280;1209;48.410;9.054;2023-02-19T15:35:26;97106.22;;;9.43;100.00
2397;BME280;1209;48.410;9.054;2023-02-19T15:37:52;97107.84;;;9.44;100.00
2397;BME280;1209;48.410;9.054;2023-02-19T15:40:25;97109.13;;;9.40;100.00
2397;BME280;1209;48.410;9.054;2023-02-19T15:42:52;97116.50;;;9.44;100.00
2397;BME280;1209;48.410;9.054;2023-02-19T15:45:28;97133.25;;;9.42;100.00